sensor_id;sensor_type;location;lat;lon;timestamp;pressure;altitude;pressure_sealevel;temperature;humidity
65384;BME280;51986;52.788;41.368;2023-12-20T00:01:34;98204.00;;;1.91;79.99
65384;BME280;51986;52.788;41.368;2023-12-20T00:04:02;98197.25;;;1.86;79.93
65384;BME280;51986;52.788;41.368;2023-12-20T00:06:30;98193.50;;;1.83;80.20
65384;BME280;51986;52.788;41.368;2023-12-20T00:08:57;98210.94;;;1.79;80.08
65384;BME280;51986;52.788;41.368;2023-12-20T00:11:24;98213.31;;;1.54;80.45
65384;BME280;51986;52.788;41.368;2023-12-20T00:13:51;98223.56;;;1.77;80.46
65384;BME280;51986;52.788;41.368;2023-12-20T00:16:18;98205.00;;;1.79;80.08
65384;BME280;51986;52.788;41.368;2023-12-20T00:18:46;98206.13;;;1.81;80.14
65384;BME280;51986;52.788;41.368;2023-12-20T00:21:13;98200.28;;;1.92;79.98
65384;BME280;51986;52.788;41.368;2023-12-20T00:23:40;98212.91;;;1.93;80.11
65384;BME280;51986;52.788;41.368;2023-12-20T00:26:07;98223.34;;;1.97;79.74
65384;BME280;51986;52.788;41.368;2023-12-20T00:28:34;98214.28;;;1.80;79.90
65384;BME280;51986;52.788;41.368;2023-12-20T00:31:01;98206.13;;;1.81;79.87
65384;BME280;51986;52.788;41.368;2023-12-20T00:33:28;98247.88;;;1.96;79.94
65384;BME280;51986;52.788;41.368;2023-12-20T00:35:55;98217.41;;;1.96;79.81
65384;BME280;51986;52.788;41.368;2023-12-20T00:38:22;98212.13;;;1.86;79.82
65384;BME280;51986;52.788;41.368;2023-12-20T00:40:49;98223.25;;;1.86;80.18
65384;BME280;51986;52.788;41.368;2023-12-20T00:43:16;98206.94;;;1.89;79.37
65384;BME280;51986;52.788;41.368;2023-12-20T00:45:43;98223.22;;;1.82;79.73
65384;BME280;51986;52.788;41.368;2023-12-20T00:48:10;98220.63;;;1.82;79.79
65384;BME280;51986;52.788;41.368;2023-12-20T00:50:38;98216.34;;;2.04;79.40
65384;BME280;51986;52.788;41.368;2023-12-20T00:53:05;98234.03;;;1.88;79.34
65384;BME280;51986;52.788;41.368;2023-12-20T00:55:32;98216.66;;;1.96;78.77
65384;BME280;51986;52.788;41.368;2023-12-20T00:57:59;98224.13;;;2.04;78.58
65384;BME280;51986;52.788;41.368;2023-12-20T01:00:26;98211.88;;;2.01;79.20
65384;BME280;51986;52.788;41.368;2023-12-20T01:02:53;98218.94;;;2.04;79.23
65384;BME280;51986;52.788;41.368;2023-12-20T01:05:20;98210.63;;;1.88;78.75
65384;BME280;51986;52.788;41.368;2023-12-20T01:07:47;98224.50;;;2.03;78.92
65384;BME280;51986;52.788;41.368;2023-12-20T01:10:14;98247.88;;;1.99;78.59
65384;BME280;51986;52.788;41.368;2023-12-20T01:12:42;98222.34;;;2.12;78.67
65384;BME280;51986;52.788;41.368;2023-12-20T01:15:10;98197.72;;;1.99;78.70
65384;BME280;51986;52.788;41.368;2023-12-20T01:17:37;98200.38;;;2.06;78.71
65384;BME280;51986;52.788;41.368;2023-12-20T01:20:04;98219.75;;;2.12;78.20
65384;BME280;51986;52.788;41.368;2023-12-20T01:22:33;98201.06;;;1.96;78.26
65384;BME280;51986;52.788;41.368;2023-12-20T01:25:00;98199.94;;;1.97;78.38
65384;BME280;51986;52.788;41.368;2023-12-20T01:27:27;98196.66;;;2.07;78.11
65384;BME280;51986;52.788;41.368;2023-12-20T01:29:54;98191.44;;;2.00;78.47
65384;BME280;51986;52.788;41.368;2023-12-20T01:32:21;98204.44;;;2.03;78.32
65384;BME280;51986;52.788;41.368;2023-12-20T01:34:47;98194.41;;;2.02;78.42
65384;BME280;51986;52.788;41.368;2023-12-20T01:37:15;98213.31;;;1.95;78.34
65384;BME280;51986;52.788;41.368;2023-12-20T01:39:42;98209.22;;;1.98;78.81
65384;BME280;51986;52.788;41.368;2023-12-20T01:42:09;98198.13;;;2.01;78.21
65384;BME280;51986;52.788;41.368;2023-12-20T01:44:36;98220.84;;;2.11;78.06
65384;BME280;51986;52.788;41.368;2023-12-20T01:47:04;98207.88;;;2.18;77.85
65384;BME280;51986;52.788;41.368;2023-12-20T01:49:31;98139.81;;;2.09;77.94
65384;BME280;51986;52.788;41.368;2023-12-20T01:51:58;98221.19;;;2.06;78.28
65384;BME280;51986;52.788;41.368;2023-12-20T01:54:25;98216.78;;;2.14;78.09
65384;BME280;51986;52.788;41.368;2023-12-20T01:56:52;98224.97;;;2.16;77.70
65384;BME280;51986;52.788;41.368;2023-12-20T01:59:20;98207.56;;;2.23;77.75
65384;BME280;51986;52.788;41.368;2023-12-20T02:01:47;98190.09;;;2.24;77.33
65384;BME280;51986;52.788;41.368;2023-12-20T02:04:15;98204.63;;;2.32;77.07
65384;BME280;51986;52.788;41.368;2023-12-20T02:06:43;98190.88;;;2.31;76.91
65384;BME280;51986;52.788;41.368;2023-12-20T02:09:13;98214.31;;;2.31;77.10
65384;BME280;51986;52.788;41.368;2023-12-20T02:11:41;98204.63;;;2.32;76.09
65384;BME280;51986;52.788;41.368;2023-12-20T02:14:08;98192.78;;;2.42;76.33
65384;BME280;51986;52.788;41.368;2023-12-20T02:16:36;98190.84;;;2.24;76.71
65384;BME280;51986;52.788;41.368;2023-12-20T02:19:04;98183.66;;;2.07;76.65
65384;BME280;51986;52.788;41.368;2023-12-20T02:21:34;98204.53;;;2.18;76.95
65384;BME280;51986;52.788;41.368;2023-12-20T02:24:01;98198.66;;;2.28;76.76
65384;BME280;51986;52.788;41.368;2023-12-20T02:26:33;98198.25;;;2.22;76.53
65384;BME280;51986;52.788;41.368;2023-12-20T02:29:01;98203.81;;;2.21;76.75
65384;BME280;51986;52.788;41.368;2023-12-20T02:31:28;98208.38;;;2.34;76.84
65384;BME280;51986;52.788;41.368;2023-12-20T02:33:55;98197.53;;;2.25;76.39
65384;BME280;51986;52.788;41.368;2023-12-20T02:36:22;98204.28;;;2.37;76.38
65384;BME280;51986;52.788;41.368;2023-12-20T02:38:49;98213.94;;;2.33;76.54
65384;BME280;51986;52.788;41.368;2023-12-20T02:41:16;98224.72;;;2.31;76.61
65384;BME280;51986;52.788;41.368;2023-12-20T02:43:43;98209.91;;;2.43;75.89
65384;BME280;51986;52.788;41.368;2023-12-20T02:46:11;98202.09;;;2.39;76.25
65384;BME280;51986;52.788;41.368;2023-12-20T02:48:38;98240.06;;;2.44;76.41
65384;BME280;51986;52.788;41.368;2023-12-20T02:51:06;98220.66;;;2.34;76.74
65384;BME280;51986;52.788;41.368;2023-12-20T02:53:33;98219.13;;;2.29;76.97
65384;BME280;51986;52.788;41.368;2023-12-20T02:56:00;98238.44;;;2.28;76.34
65384;BME280;51986;52.788;41.368;2023-12-20T02:58:27;98214.03;;;2.44;76.16
65384;BME280;51986;52.788;41.368;2023-12-20T03:00:54;98217.78;;;2.53;75.75
65384;BME280;51986;52.788;41.368;2023-12-20T03:03:21;98221.38;;;2.31;76.10
65384;BME280;51986;52.788;41.368;2023-12-20T03:05:48;98221.09;;;2.47;76.05
65384;BME280;51986;52.788;41.368;2023-12-20T03:08:15;98217.06;;;2.53;75.29
65384;BME280;51986;52.788;41.368;2023-12-20T03:10:42;98233.72;;;2.45;75.76
65384;BME280;51986;52.788;41.368;2023-12-20T03:13:09;98227.75;;;2.41;76.17
65384;BME280;51986;52.788;41.368;2023-12-20T03:15:36;98232.59;;;2.42;75.97
65384;BME280;51986;52.788;41.368;2023-12-20T03:18:03;98214.81;;;2.55;75.75
65384;BME280;51986;52.788;41.368;2023-12-20T03:20:31;98182.72;;;2.36;75.51
65384;BME280;51986;52.788;41.368;2023-12-20T03:22:58;98252.72;;;2.52;76.07
65384;BME280;51986;52.788;41.368;2023-12-20T03:25:25;98195.81;;;2.47;75.29
65384;BME280;51986;52.788;41.368;2023-12-20T03:27:52;98208.06;;;2.43;75.77
65384;BME280;51986;52.788;41.368;2023-12-20T03:30:20;98204.28;;;2.33;75.50
65384;BME280;51986;52.788;41.368;2023-12-20T03:32:47;98225.22;;;2.55;75.64
65384;BME280;51986;52.788;41.368;2023-12-20T03:35:14;98196.16;;;2.46;75.83
65384;BME280;51986;52.788;41.368;2023-12-20T03:37:41;98192.78;;;2.34;75.82
65384;BME280;51986;52.788;41.368;2023-12-20T03:40:09;98200.25;;;2.43;75.66
65384;BME280;51986;52.788;41.368;2023-12-20T03:42:36;98236.69;;;2.40;76.07
65384;BME280;51986;52.788;41.368;2023-12-20T03:45:03;98201.25;;;2.24;76.13
65384;BME280;51986;52.788;41.368;2023-12-20T03:47:30;98226.19;;;2.32;76.45
65384;BME280;51986;52.788;41.368;2023-12-20T03:49:58;98206.81;;;2.23;76.17
65384;BME280;51986;52.788;41.368;2023-12-20T03:52:25;98232.94;;;2.37;76.14
65384;BME280;51986;52.788;41.368;2023-12-20T03:54:52;98219.22;;;2.44;76.10
65384;BME280;51986;52.788;41.368;2023-12-20T03:57:19;98214.00;;;2.40;76.35
65384;BME280;51986;52.788;41.368;2023-12-20T03:59:46;98230.97;;;2.20;77.09
65384;BME280;51986;52.788;41.368;2023-12-20T04:02:13;98218.72;;;2.27;76.72
65384;BME280;51986;52.788;41.368;2023-12-20T04:04:40;98228.81;;;2.29;76.72
65384;BME280;51986;52.788;41.368;2023-12-20T04:07:07;98239.56;;;2.27;76.66
65384;BME280;51986;52.788;41.368;2023-12-20T04:09:35;98234.75;;;2.29;76.48
65384;BME280;51986;52.788;41.368;2023-12-20T04:12:02;98238.88;;;2.34;76.41
65384;BME280;51986;52.788;41.368;2023-12-20T04:14:29;98250.47;;;2.44;76.28
65384;BME280;51986;52.788;41.368;2023-12-20T04:16:56;98245.22;;;2.40;76.66
65384;BME280;51986;52.788;41.368;2023-12-20T04:19:23;98242.22;;;2.34;76.49
65384;BME280;51986;52.788;41.368;2023-12-20T04:21:50;98254.78;;;2.25;77.03
65384;BME280;51986;52.788;41.368;2023-12-20T04:24:18;98259.69;;;2.34;76.45
65384;BME280;51986;52.788;41.368;2023-12-20T04:26:45;98216.00;;;2.06;77.02
65384;BME280;51986;52.788;41.368;2023-12-20T04:29:12;98227.41;;;2.46;76.15
65384;BME280;51986;52.788;41.368;2023-12-20T04:31:39;98221.75;;;2.33;76.60
65384;BME280;51986;52.788;41.368;2023-12-20T04:34:06;98232.22;;;2.40;76.57
65384;BME280;51986;52.788;41.368;2023-12-20T04:36:33;98222.16;;;2.39;77.06
65384;BME280;51986;52.788;41.368;2023-12-20T04:39:00;98245.59;;;2.39;76.67
65384;BME280;51986;52.788;41.368;2023-12-20T04:41:27;98239.28;;;2.40;76.34
65384;BME280;51986;52.788;41.368;2023-12-20T04:43:54;98258.94;;;2.37;77.35
65384;BME280;51986;52.788;41.368;2023-12-20T04:46:21;98235.50;;;2.30;76.76
65384;BME280;51986;52.788;41.368;2023-12-20T04:48:48;98241.38;;;2.20;77.10
65384;BME280;51986;52.788;41.368;2023-12-20T04:51:15;98264.91;;;2.38;76.49
65384;BME280;51986;52.788;41.368;2023-12-20T04:53:43;98271.59;;;2.35;77.01
65384;BME280;51986;52.788;41.368;2023-12-20T04:56:10;98269.66;;;2.28;76.94
65384;BME280;51986;52.788;41.368;2023-12-20T04:58:37;98258.91;;;2.30;77.19
65384;BME280;51986;52.788;41.368;2023-12-20T05:01:05;98272.94;;;2.18;77.06
65384;BME280;51986;52.788;41.368;2023-12-20T05:03:33;98272.22;;;2.21;76.83
65384;BME280;51986;52.788;41.368;2023-12-20T05:06:00;98272.59;;;2.20;77.28
65384;BME280;51986;52.788;41.368;2023-12-20T05:08:27;98291.22;;;2.25;76.95
65384;BME280;51986;52.788;41.368;2023-12-20T05:10:54;98309.22;;;2.45;76.55
65384;BME280;51986;52.788;41.368;2023-12-20T05:13:22;98283.78;;;2.27;77.29
65384;BME280;51986;52.788;41.368;2023-12-20T05:15:59;98293.09;;;2.28;77.06
65384;BME280;51986;52.788;41.368;2023-12-20T05:18:27;98299.31;;;2.17;77.18
65384;BME280;51986;52.788;41.368;2023-12-20T05:20:54;98306.47;;;2.27;77.42
65384;BME280;51986;52.788;41.368;2023-12-20T05:23:25;98290.38;;;2.14;77.62
65384;BME280;51986;52.788;41.368;2023-12-20T05:25:52;98293.69;;;2.11;77.18
65384;BME280;51986;52.788;41.368;2023-12-20T05:28:19;98322.03;;;2.23;77.31
65384;BME280;51986;52.788;41.368;2023-12-20T05:30:46;98299.81;;;2.29;77.07
65384;BME280;51986;52.788;41.368;2023-12-20T05:33:14;98328.44;;;2.33;77.20
65384;BME280;51986;52.788;41.368;2023-12-20T05:35:41;98316.19;;;2.33;77.49
65384;BME280;51986;52.788;41.368;2023-12-20T05:38:08;98324.72;;;2.30;77.15
65384;BME280;51986;52.788;41.368;2023-12-20T05:40:35;98338.44;;;2.27;77.22
65384;BME280;51986;52.788;41.368;2023-12-20T05:43:02;98320.50;;;2.19;76.70
65384;BME280;51986;52.788;41.368;2023-12-20T05:45:30;98320.63;;;2.33;76.47
65384;BME280;51986;52.788;41.368;2023-12-20T05:47:57;98308.41;;;2.33;76.81
65384;BME280;51986;52.788;41.368;2023-12-20T05:50:24;98314.31;;;2.30;77.10
65384;BME280;51986;52.788;41.368;2023-12-20T05:52:51;98330.94;;;2.22;77.18
65384;BME280;51986;52.788;41.368;2023-12-20T05:55:18;98315.06;;;2.31;77.25
65384;BME280;51986;52.788;41.368;2023-12-20T05:57:45;98291.25;;;2.29;76.82
65384;BME280;51986;52.788;41.368;2023-12-20T06:00:13;98303.19;;;2.33;76.84
65384;BME280;51986;52.788;41.368;2023-12-20T06:02:40;98303.56;;;2.35;77.18
65384;BME280;51986;52.788;41.368;2023-12-20T06:05:07;98319.66;;;2.48;76.47
65384;BME280;51986;52.788;41.368;2023-12-20T06:07:34;98318.13;;;2.47;76.90
65384;BME280;51986;52.788;41.368;2023-12-20T06:10:02;98308.78;;;2.35;76.30
65384;BME280;51986;52.788;41.368;2023-12-20T06:12:29;98324.13;;;2.48;76.45
65384;BME280;51986;52.788;41.368;2023-12-20T06:14:56;98312.19;;;2.47;76.51
65384;BME280;51986;52.788;41.368;2023-12-20T06:17:23;98284.75;;;2.56;76.21
65384;BME280;51986;52.788;41.368;2023-12-20T06:19:50;98304.78;;;2.52;76.31
65384;BME280;51986;52.788;41.368;2023-12-20T06:22:17;98271.63;;;2.39;76.85
65384;BME280;51986;52.788;41.368;2023-12-20T06:24:44;98282.84;;;2.50;76.23
65384;BME280;51986;52.788;41.368;2023-12-20T06:27:12;98304.19;;;2.70;75.96
65384;BME280;51986;52.788;41.368;2023-12-20T06:29:39;98301.91;;;2.65;75.67
65384;BME280;51986;52.788;41.368;2023-12-20T06:32:06;98312.28;;;2.61;75.76
65384;BME280;51986;52.788;41.368;2023-12-20T06:34:33;98335.72;;;2.57;76.09
65384;BME280;51986;52.788;41.368;2023-12-20T06:37:00;98338.69;;;2.59;75.94
65384;BME280;51986;52.788;41.368;2023-12-20T06:39:27;98319.00;;;2.58;75.79
65384;BME280;51986;52.788;41.368;2023-12-20T06:41:54;98316.47;;;2.76;75.47
65384;BME280;51986;52.788;41.368;2023-12-20T06:44:21;98321.34;;;2.78;74.93
65384;BME280;51986;52.788;41.368;2023-12-20T06:46:49;98321.69;;;2.73;75.27
65384;BME280;51986;52.788;41.368;2023-12-20T06:49:16;98304.56;;;2.75;75.09
65384;BME280;51986;52.788;41.368;2023-12-20T06:51:43;98311.72;;;2.85;74.90
65384;BME280;51986;52.788;41.368;2023-12-20T06:54:10;98301.88;;;2.61;75.30
65384;BME280;51986;52.788;41.368;2023-12-20T06:56:37;98299.75;;;2.74;75.40
65384;BME280;51986;52.788;41.368;2023-12-20T06:59:04;98289.34;;;2.77;74.97
65384;BME280;51986;52.788;41.368;2023-12-20T07:01:31;98297.91;;;2.78;74.57
65384;BME280;51986;52.788;41.368;2023-12-20T07:03:59;98328.84;;;2.90;74.66
65384;BME280;51986;52.788;41.368;2023-12-20T07:06:26;98321.44;;;2.92;74.08
65384;BME280;51986;52.788;41.368;2023-12-20T07:08:53;98307.28;;;2.93;74.65
65384;BME280;51986;52.788;41.368;2023-12-20T07:11:20;98319.88;;;2.77;74.60
65384;BME280;51986;52.788;41.368;2023-12-20T07:13:47;98322.94;;;3.00;74.36
65384;BME280;51986;52.788;41.368;2023-12-20T07:16:15;98305.41;;;2.90;74.72
65384;BME280;51986;52.788;41.368;2023-12-20T07:18:42;98323.75;;;3.08;74.29
65384;BME280;51986;52.788;41.368;2023-12-20T07:21:09;98306.63;;;3.07;73.87
65384;BME280;51986;52.788;41.368;2023-12-20T07:23:36;98321.47;;;2.99;73.71
65384;BME280;51986;52.788;41.368;2023-12-20T07:26:03;98317.47;;;3.16;73.52
65384;BME280;51986;52.788;41.368;2023-12-20T07:28:30;98323.72;;;3.04;74.33
65384;BME280;51986;52.788;41.368;2023-12-20T07:31:00;98335.97;;;3.00;74.01
65384;BME280;51986;52.788;41.368;2023-12-20T07:33:28;98308.47;;;3.03;73.81
65384;BME280;51986;52.788;41.368;2023-12-20T07:35:59;98318.50;;;3.04;73.63
65384;BME280;51986;52.788;41.368;2023-12-20T07:38:27;98332.53;;;2.85;73.57
65384;BME280;51986;52.788;41.368;2023-12-20T07:40:54;98311.13;;;3.13;73.88
65384;BME280;51986;52.788;41.368;2023-12-20T07:43:21;98327.50;;;3.14;73.42
65384;BME280;51986;52.788;41.368;2023-12-20T07:45:48;98328.09;;;2.86;74.07
65384;BME280;51986;52.788;41.368;2023-12-20T07:48:15;98330.78;;;2.97;73.94
65384;BME280;51986;52.788;41.368;2023-12-20T07:50:42;98318.47;;;2.94;74.20
65384;BME280;51986;52.788;41.368;2023-12-20T07:53:09;98333.66;;;2.84;74.88
65384;BME280;51986;52.788;41.368;2023-12-20T07:55:36;98307.56;;;2.74;74.82
65384;BME280;51986;52.788;41.368;2023-12-20T07:58:03;98327.41;;;2.96;74.49
65384;BME280;51986;52.788;41.368;2023-12-20T08:00:30;98333.34;;;2.93;74.97
65384;BME280;51986;52.788;41.368;2023-12-20T08:02:57;98327.75;;;2.95;74.54
65384;BME280;51986;52.788;41.368;2023-12-20T08:05:25;98330.72;;;2.90;74.87
65384;BME280;51986;52.788;41.368;2023-12-20T08:07:52;98333.34;;;2.93;74.90
65384;BME280;51986;52.788;41.368;2023-12-20T08:10:19;98318.47;;;2.94;75.18
65384;BME280;51986;52.788;41.368;2023-12-20T08:12:46;98343.44;;;3.02;74.55
65384;BME280;51986;52.788;41.368;2023-12-20T08:15:13;98327.41;;;3.00;74.21
65384;BME280;51986;52.788;41.368;2023-12-20T08:17:40;98326.34;;;3.08;73.92
65384;BME280;51986;52.788;41.368;2023-12-20T08:20:08;98312.63;;;3.18;73.84
65384;BME280;51986;52.788;41.368;2023-12-20T08:22:35;98316.25;;;2.96;74.69
65384;BME280;51986;52.788;41.368;2023-12-20T08:25:02;98286.44;;;2.90;74.60
65384;BME280;51986;52.788;41.368;2023-12-20T08:27:29;98312.69;;;3.25;74.08
65384;BME280;51986;52.788;41.368;2023-12-20T08:29:56;98299.19;;;3.09;74.11
65384;BME280;51986;52.788;41.368;2023-12-20T08:32:26;98281.72;;;3.13;74.58
65384;BME280;51986;52.788;41.368;2023-12-20T08:34:54;98301.06;;;3.12;73.92
65384;BME280;51986;52.788;41.368;2023-12-20T08:37:21;98301.09;;;3.16;73.85
65384;BME280;51986;52.788;41.368;2023-12-20T08:39:48;98283.59;;;3.16;73.73
65384;BME280;51986;52.788;41.368;2023-12-20T08:42:15;98279.16;;;3.27;73.74
65384;BME280;51986;52.788;41.368;2023-12-20T08:44:42;98291.81;;;3.22;73.57
65384;BME280;51986;52.788;41.368;2023-12-20T08:47:09;98291.00;;;3.14;74.24
65384;BME280;51986;52.788;41.368;2023-12-20T08:49:36;98292.41;;;2.94;74.20
65384;BME280;51986;52.788;41.368;2023-12-20T08:52:04;98298.47;;;3.19;73.66
65384;BME280;51986;52.788;41.368;2023-12-20T08:54:31;98292.75;;;2.88;74.46
65384;BME280;51986;52.788;41.368;2023-12-20T08:56:58;98316.28;;;3.03;74.45
65384;BME280;51986;52.788;41.368;2023-12-20T08:59:25;98290.91;;;2.89;74.73
65384;BME280;51986;52.788;41.368;2023-12-20T09:01:52;98283.03;;;2.78;74.65
65384;BME280;51986;52.788;41.368;2023-12-20T09:04:20;98295.72;;;2.91;74.44
65384;BME280;51986;52.788;41.368;2023-12-20T09:06:47;98256.34;;;3.03;74.20
65384;BME280;51986;52.788;41.368;2023-12-20T09:09:14;98257.38;;;2.84;74.33
65384;BME280;51986;52.788;41.368;2023-12-20T09:11:41;98287.94;;;2.94;74.78
65384;BME280;51986;52.788;41.368;2023-12-20T09:14:08;98268.25;;;3.00;74.54
65384;BME280;51986;52.788;41.368;2023-12-20T09:16:35;98265.25;;;2.95;74.30
65384;BME280;51986;52.788;41.368;2023-12-20T09:19:03;98255.94;;;2.94;74.34
65384;BME280;51986;52.788;41.368;2023-12-20T09:21:30;98240.72;;;2.96;73.93
65384;BME280;51986;52.788;41.368;2023-12-20T09:23:57;98244.81;;;3.04;73.84
65384;BME280;51986;52.788;41.368;2023-12-20T09:26:24;98261.94;;;3.05;74.17
65384;BME280;51986;52.788;41.368;2023-12-20T09:28:51;98251.53;;;3.05;73.87
65384;BME280;51986;52.788;41.368;2023-12-20T09:31:18;98239.59;;;3.04;73.88
65384;BME280;51986;52.788;41.368;2023-12-20T09:33:45;98255.25;;;3.07;73.71
65384;BME280;51986;52.788;41.368;2023-12-20T09:36:12;98269.44;;;3.10;73.47
65384;BME280;51986;52.788;41.368;2023-12-20T09:38:40;98275.00;;;3.12;73.81
65384;BME280;51986;52.788;41.368;2023-12-20T09:41:07;98239.66;;;3.14;73.47
65384;BME280;51986;52.788;41.368;2023-12-20T09:43:37;98259.41;;;3.23;73.28
65384;BME280;51986;52.788;41.368;2023-12-20T09:46:06;98266.47;;;3.15;73.32
65384;BME280;51986;52.788;41.368;2023-12-20T09:48:33;98262.81;;;3.34;72.92
65384;BME280;51986;52.788;41.368;2023-12-20T09:51:00;98252.41;;;3.45;72.60
65384;BME280;51986;52.788;41.368;2023-12-20T09:53:28;98250.84;;;3.19;73.36
65384;BME280;51986;52.788;41.368;2023-12-20T09:55:59;98250.88;;;3.26;73.23
65384;BME280;51986;52.788;41.368;2023-12-20T09:58:26;98231.50;;;3.20;72.95
65384;BME280;51986;52.788;41.368;2023-12-20T10:00:55;98221.41;;;3.11;73.44
65384;BME280;51986;52.788;41.368;2023-12-20T10:03:25;98245.22;;;3.06;73.67
65384;BME280;51986;52.788;41.368;2023-12-20T10:05:54;98229.59;;;3.13;73.47
65384;BME280;51986;52.788;41.368;2023-12-20T10:08:24;98218.03;;;3.03;73.47
65384;BME280;51986;52.788;41.368;2023-12-20T10:10:51;98220.25;;;2.98;74.33
65384;BME280;51986;52.788;41.368;2023-12-20T10:13:19;98209.78;;;2.91;74.50
65384;BME280;51986;52.788;41.368;2023-12-20T10:15:46;98237.72;;;2.94;74.37
65384;BME280;51986;52.788;41.368;2023-12-20T10:18:13;98221.69;;;2.88;74.56
65384;BME280;51986;52.788;41.368;2023-12-20T10:20:41;98239.59;;;3.00;74.18
65384;BME280;51986;52.788;41.368;2023-12-20T10:23:08;98214.28;;;2.97;74.10
65384;BME280;51986;52.788;41.368;2023-12-20T10:25:35;98212.00;;;2.85;74.08
65384;BME280;51986;52.788;41.368;2023-12-20T10:28:15;98197.88;;;2.90;74.28
65384;BME280;51986;52.788;41.368;2023-12-20T10:30:43;98213.41;;;2.68;74.92
65384;BME280;51986;52.788;41.368;2023-12-20T10:33:10;98215.69;;;2.80;74.52
65384;BME280;51986;52.788;41.368;2023-12-20T10:35:39;98214.22;;;2.83;74.82
65384;BME280;51986;52.788;41.368;2023-12-20T10:38:12;98202.59;;;2.66;75.16
65384;BME280;51986;52.788;41.368;2023-12-20T10:40:39;98223.91;;;2.82;75.24
65384;BME280;51986;52.788;41.368;2023-12-20T10:43:08;98209.72;;;2.76;75.23
65384;BME280;51986;52.788;41.368;2023-12-20T10:45:36;98201.91;;;2.76;75.02
65384;BME280;51986;52.788;41.368;2023-12-20T10:48:04;98209.81;;;2.94;75.04
65384;BME280;51986;52.788;41.368;2023-12-20T10:50:33;98215.69;;;2.80;75.41
65384;BME280;51986;52.788;41.368;2023-12-20T10:53:02;98208.28;;;2.82;75.40
65384;BME280;51986;52.788;41.368;2023-12-20T10:55:30;98232.00;;;2.70;75.96
65384;BME280;51986;52.788;41.368;2023-12-20T10:58:01;98213.84;;;2.77;75.51
65384;BME280;51986;52.788;41.368;2023-12-20T11:00:32;98206.41;;;2.83;74.99
65384;BME280;51986;52.788;41.368;2023-12-20T11:03:02;98219.44;;;2.83;74.74
65384;BME280;51986;52.788;41.368;2023-12-20T11:05:49;98229.16;;;3.00;75.35
65384;BME280;51986;52.788;41.368;2023-12-20T11:08:38;98199.31;;;2.80;75.19
65384;BME280;51986;52.788;41.368;2023-12-20T11:11:14;98206.44;;;2.90;75.15
65384;BME280;51986;52.788;41.368;2023-12-20T11:13:58;98211.34;;;3.06;74.97
65384;BME280;51986;52.788;41.368;2023-12-20T11:16:27;98196.44;;;3.03;74.33
65384;BME280;51986;52.788;41.368;2023-12-20T11:19:08;98210.59;;;3.05;74.42
65384;BME280;51986;52.788;41.368;2023-12-20T11:21:35;98193.09;;;3.06;74.47
65384;BME280;51986;52.788;41.368;2023-12-20T11:24:03;98199.72;;;2.85;75.27
65384;BME280;51986;52.788;41.368;2023-12-20T11:26:31;98196.38;;;2.88;75.25
65384;BME280;51986;52.788;41.368;2023-12-20T11:31:57;98190.41;;;2.77;75.55
65384;BME280;51986;52.788;41.368;2023-12-20T11:34:27;98198.94;;;2.74;75.90
65384;BME280;51986;52.788;41.368;2023-12-20T11:37:02;98200.38;;;2.65;76.67
65384;BME280;51986;52.788;41.368;2023-12-20T11:39:30;98218.56;;;2.61;76.48
65384;BME280;51986;52.788;41.368;2023-12-20T11:42:04;98201.03;;;2.51;77.58
65384;BME280;51986;52.788;41.368;2023-12-20T11:44:31;98188.69;;;2.33;77.35
65384;BME280;51986;52.788;41.368;2023-12-20T11:46:58;98205.13;;;2.52;77.45
65384;BME280;51986;52.788;41.368;2023-12-20T11:49:26;98201.34;;;2.39;78.22
65384;BME280;51986;52.788;41.368;2023-12-20T11:51:53;98227.47;;;2.53;78.29
65384;BME280;51986;52.788;41.368;2023-12-20T11:54:20;98157.44;;;2.33;77.96
65384;BME280;51986;52.788;41.368;2023-12-20T11:56:47;98224.88;;;2.56;78.13
65384;BME280;51986;52.788;41.368;2023-12-20T11:59:15;98209.03;;;2.21;79.02
65384;BME280;51986;52.788;41.368;2023-12-20T12:01:50;98194.59;;;2.30;79.01
65384;BME280;51986;52.788;41.368;2023-12-20T12:04:17;98215.72;;;2.22;79.45
65384;BME280;51986;52.788;41.368;2023-12-20T12:06:45;98204.97;;;2.27;79.47
65384;BME280;51986;52.788;41.368;2023-12-20T12:09:13;98212.38;;;2.21;79.65
65384;BME280;51986;52.788;41.368;2023-12-20T12:11:40;98218.25;;;2.11;79.97
65384;BME280;51986;52.788;41.368;2023-12-20T12:14:07;98197.44;;;2.11;80.05
65384;BME280;51986;52.788;41.368;2023-12-20T12:16:34;98216.88;;;2.24;79.89
65384;BME280;51986;52.788;41.368;2023-12-20T12:19:02;98207.84;;;2.11;79.91
65384;BME280;51986;52.788;41.368;2023-12-20T12:21:29;98219.75;;;2.12;80.53
65384;BME280;51986;52.788;41.368;2023-12-20T12:24:09;98208.28;;;2.20;80.47
65384;BME280;51986;52.788;41.368;2023-12-20T12:26:37;98207.94;;;2.25;79.51
65384;BME280;51986;52.788;41.368;2023-12-20T12:29:07;98218.63;;;2.09;80.06
65384;BME280;51986;52.788;41.368;2023-12-20T12:31:35;98237.25;;;2.19;79.70
65384;BME280;51986;52.788;41.368;2023-12-20T12:34:02;98230.56;;;2.14;80.30
65384;BME280;51986;52.788;41.368;2023-12-20T12:36:29;98218.25;;;2.11;80.48
65384;BME280;51986;52.788;41.368;2023-12-20T12:38:57;98223.00;;;2.02;80.73
65384;BME280;51986;52.788;41.368;2023-12-20T12:41:24;98216.03;;;2.09;80.30
65384;BME280;51986;52.788;41.368;2023-12-20T12:43:51;98213.75;;;2.08;80.27
65384;BME280;51986;52.788;41.368;2023-12-20T12:46:18;98220.84;;;2.11;80.13
65384;BME280;51986;52.788;41.368;2023-12-20T12:48:45;98224.34;;;2.33;79.78
65384;BME280;51986;52.788;41.368;2023-12-20T12:51:13;98225.84;;;2.34;79.37
65384;BME280;51986;52.788;41.368;2023-12-20T12:53:41;98189.25;;;2.09;79.48
65384;BME280;51986;52.788;41.368;2023-12-20T12:56:08;98203.88;;;2.24;79.61
65384;BME280;51986;52.788;41.368;2023-12-20T12:58:35;98206.41;;;2.17;79.67
65384;BME280;51986;52.788;41.368;2023-12-20T13:01:03;98227.72;;;2.37;79.26
65384;BME280;51986;52.788;41.368;2023-12-20T13:03:30;98235.03;;;2.17;79.55
65384;BME280;51986;52.788;41.368;2023-12-20T13:05:57;98226.97;;;2.36;79.28